Time;durP1;ratioP1;P1;durP2;ratioP2;P2;SDS_P1;SDS_P2;PMS_P1;PMS_P2;Temp;Humidity;BMP_temperature;BMP_pressure;BME280_temperature;BME280_humidity;BME280_pressure;Samples;Min_cycle;Max_cycle;Signal;HPM_P1;HPM_P2
2023/04/12 00:01:27;;;;;;;1.85;0.63;;;;;;;;;;4875526;29;20068;-60
2023/04/12 00:03:56;;;;;;;0.80;0.73;;;;;;;;;;4875698;29;20084;-60
2023/04/12 00:06:31;;;;;;;0.60;0.38;;;;;;;;;;4874719;29;20135;-61
2023/04/12 00:09:02;;;;;;;0.10;0.10;;;;;;;;;;4875504;29;20456;-59
2023/04/12 00:11:31;;;;;;;0.73;0.30;;;;;;;;;;4875427;29;20397;-60
2023/04/12 00:14:00;;;;;;;0.17;0.17;;;;;;;;;;4875676;29;20517;-61
2023/04/12 00:16:28;;;;;;;0.50;0.50;;;;;;;;;;4874745;29;20143;-60
2023/04/12 00:18:57;;;;;;;0.47;0.47;;;;;;;;;;4875134;29;20128;-59
2023/04/12 00:21:27;;;;;;;4.47;0.70;;;;;;;;;;4875367;29;20148;-59
2023/04/12 00:23:56;;;;;;;1.05;0.50;;;;;;;;;;4875358;29;20053;-60
2023/04/12 00:26:26;;;;;;;0.20;0.20;;;;;;;;;;4874919;29;20059;-61
2023/04/12 00:28:54;;;;;;;4.10;0.70;;;;;;;;;;4875322;29;20052;-59
2023/04/12 00:31:23;;;;;;;0.90;0.70;;;;;;;;;;4875251;29;20065;-59
2023/04/12 00:33:51;;;;;;;2.28;0.57;;;;;;;;;;4875431;29;20109;-59
2023/04/12 00:36:20;;;;;;;0.35;0.30;;;;;;;;;;4874588;29;20196;-60
2023/04/12 00:38:49;;;;;;;0.55;0.50;;;;;;;;;;4874665;29;20526;-59
2023/04/12 00:41:18;;;;;;;0.57;0.20;;;;;;;;;;4874751;29;20057;-62
2023/04/12 00:43:48;;;;;;;0.40;0.40;;;;;;;;;;4875018;29;20489;-59
2023/04/12 00:46:18;;;;;;;0.20;0.20;;;;;;;;;;4874361;29;20559;-59
2023/04/12 00:48:47;;;;;;;0.55;0.47;;;;;;;;;;4874590;29;20100;-60
2023/04/12 00:51:16;;;;;;;2.10;0.28;;;;;;;;;;4874746;29;20053;-60
2023/04/12 00:53:45;;;;;;;0.70;0.47;;;;;;;;;;4874377;29;20061;-59
2023/04/12 00:56:14;;;;;;;0.32;0.32;;;;;;;;;;4874624;29;20459;-60
2023/04/12 00:58:42;;;;;;;0.20;0.20;;;;;;;;;;4874371;29;20143;-60
2023/04/12 01:01:12;;;;;;;0.68;0.50;;;;;;;;;;4875439;29;20079;-59
2023/04/12 01:03:41;;;;;;;1.08;0.75;;;;;;;;;;4931358;23;20445;-61
2023/04/12 01:06:14;;;;;;;0.20;0.20;;;;;;;;;;4936199;29;20043;-58
2023/04/12 01:08:47;;;;;;;0.32;0.32;;;;;;;;;;4935467;29;20493;-58
2023/04/12 01:11:19;;;;;;;0.80;0.70;;;;;;;;;;4936271;29;20135;-58
2023/04/12 01:13:52;;;;;;;2.92;0.85;;;;;;;;;;4935414;29;20043;-58
2023/04/12 01:16:26;;;;;;;0.50;0.30;;;;;;;;;;4936448;29;20082;-58
2023/04/12 01:18:58;;;;;;;0.20;0.20;;;;;;;;;;4936471;29;20048;-58
2023/04/12 01:21:31;;;;;;;0.28;0.20;;;;;;;;;;4935451;29;20569;-59
2023/04/12 01:24:04;;;;;;;0.10;0.10;;;;;;;;;;4936107;29;20067;-58
2023/04/12 01:26:35;;;;;;;0.25;0.25;;;;;;;;;;4935625;29;20047;-58
2023/04/12 01:29:09;;;;;;;0.77;0.50;;;;;;;;;;4935520;29;20090;-58
2023/04/12 01:31:40;;;;;;;0.50;0.45;;;;;;;;;;4935307;29;20052;-59
2023/04/12 01:34:10;;;;;;;0.60;0.47;;;;;;;;;;4936160;29;20055;-58
2023/04/12 01:36:39;;;;;;;0.75;0.60;;;;;;;;;;4934680;29;20055;-58
2023/04/12 01:39:08;;;;;;;0.47;0.47;;;;;;;;;;4931512;29;20058;-59
2023/04/12 01:41:40;;;;;;;2.78;0.40;;;;;;;;;;4931113;29;20070;-58
2023/04/12 01:44:13;;;;;;;0.75;0.55;;;;;;;;;;4919202;29;20052;-58
2023/04/12 01:46:41;;;;;;;0.88;0.57;;;;;;;;;;4930949;28;20048;-58
2023/04/12 01:49:10;;;;;;;1.35;0.40;;;;;;;;;;4931513;29;20051;-58
2023/04/12 01:51:44;;;;;;;3.03;0.75;;;;;;;;;;4931482;29;20043;-58
2023/04/12 01:54:13;;;;;;;0.47;0.20;;;;;;;;;;4931292;29;20056;-58
2023/04/12 01:56:44;;;;;;;0.25;0.25;;;;;;;;;;4931882;29;20060;-58
2023/04/12 01:59:14;;;;;;;0.50;0.38;;;;;;;;;;4935030;29;20047;-58
2023/04/12 02:01:43;;;;;;;0.52;0.20;;;;;;;;;;4934655;29;20425;-58
2023/04/12 02:04:12;;;;;;;0.30;0.30;;;;;;;;;;4934938;29;20056;-58
2023/04/12 02:06:40;;;;;;;0.35;0.35;;;;;;;;;;4934644;29;20059;-59
2023/04/12 02:09:09;;;;;;;0.17;0.17;;;;;;;;;;4934981;29;20051;-59
2023/04/12 02:11:38;;;;;;;0.17;0.17;;;;;;;;;;4933965;29;20054;-58
2023/04/12 02:14:06;;;;;;;12.15;0.55;;;;;;;;;;4934411;29;20064;-58
2023/04/12 02:16:36;;;;;;;1.38;0.73;;;;;;;;;;4934623;29;20075;-58
2023/04/12 02:19:07;;;;;;;0.68;0.65;;;;;;;;;;4921790;29;20056;-58
2023/04/12 02:21:40;;;;;;;0.40;0.40;;;;;;;;;;4934615;29;20134;-59
2023/04/12 02:24:09;;;;;;;0.20;0.20;;;;;;;;;;4934459;29;20056;-58
2023/04/12 02:26:37;;;;;;;0.32;0.32;;;;;;;;;;4934362;28;20568;-59
2023/04/12 02:29:07;;;;;;;0.15;0.15;;;;;;;;;;4934560;29;20175;-59
2023/04/12 02:31:38;;;;;;;1.75;0.45;;;;;;;;;;4934260;29;20127;-59
2023/04/12 02:34:06;;;;;;;3.35;0.85;;;;;;;;;;4934390;29;20099;-59
2023/04/12 02:36:36;;;;;;;0.20;0.20;;;;;;;;;;4934048;28;20148;-60
2023/04/12 02:39:06;;;;;;;0.30;0.30;;;;;;;;;;4934438;29;20067;-60
2023/04/12 02:41:35;;;;;;;1.50;0.40;;;;;;;;;;4933061;29;20638;-60
2023/04/12 02:44:03;;;;;;;0.63;0.63;;;;;;;;;;4934122;29;20054;-60
2023/04/12 02:46:31;;;;;;;0.40;0.40;;;;;;;;;;4933948;28;20052;-60
2023/04/12 02:49:01;;;;;;;0.40;0.40;;;;;;;;;;4934233;29;20134;-61
2023/04/12 02:51:30;;;;;;;2.63;0.70;;;;;;;;;;4934036;29;20428;-61
2023/04/12 02:53:58;;;;;;;0.20;0.20;;;;;;;;;;4933653;29;20075;-60
2023/04/12 02:56:28;;;;;;;0.22;0.22;;;;;;;;;;4934499;29;20126;-60
2023/04/12 02:58:57;;;;;;;1.30;0.43;;;;;;;;;;4934118;29;20043;-59
2023/04/12 03:01:25;;;;;;;1.15;0.40;;;;;;;;;;4933665;29;20485;-59
2023/04/12 03:03:53;;;;;;;0.57;0.57;;;;;;;;;;4933904;29;20187;-59
2023/04/12 03:06:24;;;;;;;0.10;0.10;;;;;;;;;;4933179;29;20059;-59
2023/04/12 03:08:52;;;;;;;0.47;0.30;;;;;;;;;;4933524;29;20143;-59
2023/04/12 03:11:20;;;;;;;0.57;0.57;;;;;;;;;;4933476;29;20453;-59
2023/04/12 03:13:49;;;;;;;0.25;0.25;;;;;;;;;;4934009;29;20382;-59
2023/04/12 03:16:22;;;;;;;0.82;0.57;;;;;;;;;;4933262;29;20130;-59
2023/04/12 03:18:51;;;;;;;0.20;0.20;;;;;;;;;;4922051;29;20513;-59
2023/04/12 03:21:19;;;;;;;1.17;0.47;;;;;;;;;;4932667;29;20052;-59
2023/04/12 03:23:49;;;;;;;0.90;0.73;;;;;;;;;;4933345;29;20402;-59
2023/04/12 03:26:19;;;;;;;0.32;0.32;;;;;;;;;;4933042;29;20048;-59
2023/04/12 03:28:48;;;;;;;3.13;0.45;;;;;;;;;;4933214;29;20146;-59
2023/04/12 03:31:20;;;;;;;1.38;0.35;;;;;;;;;;4933580;29;20107;-59
2023/04/12 03:33:48;;;;;;;0.10;0.10;;;;;;;;;;4933040;29;20060;-59
2023/04/12 03:36:17;;;;;;;0.30;0.20;;;;;;;;;;4932892;29;20054;-59
2023/04/12 03:38:45;;;;;;;3.90;0.35;;;;;;;;;;4933144;29;20061;-59
2023/04/12 03:41:15;;;;;;;1.83;0.57;;;;;;;;;;4932657;29;20085;-60
2023/04/12 03:43:43;;;;;;;0.30;0.30;;;;;;;;;;4933029;29;20072;-60
2023/04/12 03:46:14;;;;;;;0.25;0.13;;;;;;;;;;4932495;28;20054;-60
2023/04/12 03:48:42;;;;;;;0.43;0.40;;;;;;;;;;4933049;29;20047;-60
2023/04/12 03:51:11;;;;;;;3.38;0.45;;;;;;;;;;4933033;29;20052;-60
2023/04/12 03:53:40;;;;;;;0.55;0.43;;;;;;;;;;4932612;29;20130;-59
2023/04/12 03:56:09;;;;;;;1.92;0.35;;;;;;;;;;4932553;29;20083;-60
2023/04/12 03:58:38;;;;;;;0.20;0.20;;;;;;;;;;4933005;29;20086;-60
2023/04/12 04:01:08;;;;;;;0.50;0.50;;;;;;;;;;4932979;29;20478;-60
2023/04/12 04:03:37;;;;;;;0.73;0.22;;;;;;;;;;4932490;29;20134;-60
2023/04/12 04:06:06;;;;;;;3.80;0.30;;;;;;;;;;4932330;28;20131;-60
2023/04/12 04:08:35;;;;;;;0.35;0.32;;;;;;;;;;4920214;29;20094;-60
2023/04/12 04:11:03;;;;;;;0.35;0.35;;;;;;;;;;4932413;29;20056;-60
2023/04/12 04:13:33;;;;;;;0.22;0.22;;;;;;;;;;4932339;29;20497;-60
2023/04/12 04:16:05;;;;;;;0.10;0.10;;;;;;;;;;4932218;28;20050;-60
2023/04/12 04:18:34;;;;;;;0.50;0.40;;;;;;;;;;4925605;29;20080;-60
2023/04/12 04:21:03;;;;;;;0.35;0.30;;;;;;;;;;4932096;29;20052;-60
2023/04/12 04:23:37;;;;;;;2.28;0.38;;;;;;;;;;4932420;29;20592;-59
2023/04/12 04:26:09;;;;;;;0.10;0.10;;;;;;;;;;4931580;28;20508;-60
2023/04/12 04:28:37;;;;;;;0.63;0.30;;;;;;;;;;4932627;29;20052;-60
2023/04/12 04:31:09;;;;;;;0.30;0.20;;;;;;;;;;4932046;29;20496;-60
2023/04/12 04:33:37;;;;;;;0.10;0.10;;;;;;;;;;4932534;29;20052;-60
2023/04/12 04:36:08;;;;;;;0.30;0.30;;;;;;;;;;4931715;29;20051;-60
2023/04/12 04:38:36;;;;;;;1.60;0.82;;;;;;;;;;4932034;29;20569;-60
2023/04/12 04:41:05;;;;;;;0.65;0.20;;;;;;;;;;4930760;29;20058;-60
2023/04/12 04:43:34;;;;;;;0.55;0.32;;;;;;;;;;4932060;29;20143;-60
2023/04/12 04:46:03;;;;;;;0.35;0.30;;;;;;;;;;4931436;28;20083;-60
2023/04/12 04:48:32;;;;;;;0.20;0.20;;;;;;;;;;4932016;29;20055;-60
2023/04/12 04:51:01;;;;;;;0.40;0.13;;;;;;;;;;4932395;29;20487;-60
2023/04/12 04:53:30;;;;;;;0.40;0.30;;;;;;;;;;4931625;29;20337;-60
2023/04/12 04:55:59;;;;;;;1.70;0.22;;;;;;;;;;4931368;29;20425;-60
2023/04/12 04:58:28;;;;;;;0.10;0.10;;;;;;;;;;4932534;29;20047;-60
2023/04/12 05:00:58;;;;;;;0.28;0.22;;;;;;;;;;4931838;29;20160;-60
2023/04/12 05:03:27;;;;;;;0.20;0.20;;;;;;;;;;4931952;29;20380;-60
2023/04/12 05:06:01;;;;;;;1.00;0.30;;;;;;;;;;4924085;29;20055;-60
2023/04/12 05:08:29;;;;;;;0.47;0.43;;;;;;;;;;4932108;29;20063;-60
2023/04/12 05:10:58;;;;;;;0.10;0.10;;;;;;;;;;4931291;29;20048;-59
2023/04/12 05:13:26;;;;;;;0.38;0.35;;;;;;;;;;4919446;29;20147;-60
2023/04/12 05:15:54;;;;;;;2.40;0.35;;;;;;;;;;4931050;29;20082;-59
2023/04/12 05:18:23;;;;;;;0.20;0.20;;;;;;;;;;4924138;29;20052;-60
2023/04/12 05:20:51;;;;;;;0.38;0.30;;;;;;;;;;4927200;29;20523;-59
2023/04/12 05:23:21;;;;;;;0.55;0.40;;;;;;;;;;4931924;29;20048;-59
2023/04/12 05:25:49;;;;;;;0.68;0.68;;;;;;;;;;4930794;29;20416;-59
2023/04/12 05:28:18;;;;;;;0.70;0.52;;;;;;;;;;4931992;29;20074;-60
2023/04/12 05:30:46;;;;;;;0.30;0.30;;;;;;;;;;4931396;29;20130;-60
2023/04/12 05:33:14;;;;;;;0.30;0.30;;;;;;;;;;4935357;29;20056;-59
2023/04/12 05:35:43;;;;;;;0.30;0.30;;;;;;;;;;4934670;28;20062;-60
2023/04/12 05:38:11;;;;;;;0.10;0.10;;;;;;;;;;4935559;29;20571;-59
2023/04/12 05:40:42;;;;;;;0.50;0.50;;;;;;;;;;4933634;29;20050;-59
2023/04/12 05:43:12;;;;;;;0.20;0.20;;;;;;;;;;4935315;29;20052;-59
2023/04/12 05:45:40;;;;;;;0.63;0.50;;;;;;;;;;4934857;28;20079;-59
2023/04/12 05:48:09;;;;;;;0.57;0.57;;;;;;;;;;4935513;29;20043;-59
2023/04/12 05:50:37;;;;;;;1.23;0.43;;;;;;;;;;4935157;29;20051;-60
2023/04/12 05:53:05;;;;;;;11.32;0.52;;;;;;;;;;4935157;29;20127;-59
2023/04/12 05:55:34;;;;;;;4.13;0.40;;;;;;;;;;4921830;29;20405;-59
2023/04/12 05:58:06;;;;;;;1.13;0.60;;;;;;;;;;4935260;29;20048;-59
2023/04/12 06:00:35;;;;;;;2.30;0.93;;;;;;;;;;4934903;29;20119;-59
2023/04/12 06:03:03;;;;;;;0.57;0.40;;;;;;;;;;4934603;29;20056;-59
2023/04/12 06:05:32;;;;;;;0.28;0.20;;;;;;;;;;4934372;29;20071;-59
2023/04/12 06:08:00;;;;;;;2.65;0.55;;;;;;;;;;4935173;29;20138;-59
2023/04/12 06:10:29;;;;;;;0.90;0.40;;;;;;;;;;4935132;29;20052;-58
2023/04/12 06:12:57;;;;;;;3.97;0.20;;;;;;;;;;4934358;29;20051;-59
2023/04/12 06:15:27;;;;;;;0.30;0.30;;;;;;;;;;4934874;29;20501;-59
2023/04/12 06:17:55;;;;;;;1.20;0.38;;;;;;;;;;4929928;29;20062;-59
2023/04/12 06:20:24;;;;;;;0.40;0.40;;;;;;;;;;4926800;29;20058;-59
2023/04/12 06:22:52;;;;;;;0.28;0.28;;;;;;;;;;4934614;29;20058;-59
2023/04/12 06:25:21;;;;;;;0.20;0.20;;;;;;;;;;4934557;29;20054;-59
2023/04/12 06:27:50;;;;;;;0.10;0.10;;;;;;;;;;4934050;29;20048;-59
2023/04/12 06:30:19;;;;;;;3.65;0.70;;;;;;;;;;4934376;29;20047;-59
2023/04/12 06:32:49;;;;;;;1.48;0.73;;;;;;;;;;4934376;29;20043;-59
2023/04/12 06:35:19;;;;;;;0.10;0.10;;;;;;;;;;4934696;29;20349;-59
2023/04/12 06:37:47;;;;;;;0.80;0.80;;;;;;;;;;4933711;29;20072;-59
2023/04/12 06:40:16;;;;;;;0.32;0.32;;;;;;;;;;4932846;29;20107;-59
2023/04/12 06:42:44;;;;;;;0.25;0.25;;;;;;;;;;4933770;29;20114;-57
2023/04/12 06:45:13;;;;;;;2.05;0.22;;;;;;;;;;4933999;29;20087;-59
2023/04/12 06:47:41;;;;;;;0.75;0.65;;;;;;;;;;4933955;28;20083;-58
2023/04/12 06:50:12;;;;;;;0.70;0.68;;;;;;;;;;4933933;29;20441;-59
2023/04/12 06:52:40;;;;;;;0.20;0.20;;;;;;;;;;4934394;29;20055;-58
2023/04/12 06:55:09;;;;;;;0.60;0.40;;;;;;;;;;4933515;29;20138;-58
2023/04/12 06:57:37;;;;;;;5.68;0.93;;;;;;;;;;4933403;28;20050;-58
2023/04/12 07:00:07;;;;;;;0.30;0.20;;;;;;;;;;4933806;29;20776;-59
2023/04/12 07:02:35;;;;;;;0.55;0.55;;;;;;;;;;4933938;29;20123;-59
2023/04/12 07:05:04;;;;;;;0.77;0.65;;;;;;;;;;4933778;29;20051;-59
2023/04/12 07:07:33;;;;;;;3.60;2.03;;;;;;;;;;4933570;29;20086;-59
2023/04/12 07:10:03;;;;;;;0.30;0.28;;;;;;;;;;4933692;29;20333;-59
2023/04/12 07:12:31;;;;;;;0.45;0.40;;;;;;;;;;4933918;29;20051;-59
2023/04/12 07:15:00;;;;;;;1.80;0.70;;;;;;;;;;4921774;29;20134;-59
2023/04/12 07:17:28;;;;;;;12.68;0.63;;;;;;;;;;4932989;28;20047;-59
2023/04/12 07:19:56;;;;;;;0.10;0.10;;;;;;;;;;4922255;29;20523;-59
2023/04/12 07:22:25;;;;;;;0.50;0.50;;;;;;;;;;4933317;29;20062;-59
2023/04/12 07:24:55;;;;;;;2.10;0.60;;;;;;;;;;4933698;29;20052;-59
2023/04/12 07:27:23;;;;;;;0.40;0.40;;;;;;;;;;4932921;29;20389;-59
2023/04/12 07:29:53;;;;;;;0.45;0.45;;;;;;;;;;4933332;29;20047;-59
2023/04/12 07:32:21;;;;;;;0.70;0.47;;;;;;;;;;4932395;29;20164;-59
2023/04/12 07:34:50;;;;;;;2.03;0.40;;;;;;;;;;4933328;29;20062;-59
2023/04/12 07:37:19;;;;;;;1.23;0.98;;;;;;;;;;4932745;29;20083;-59
2023/04/12 07:39:47;;;;;;;0.20;0.15;;;;;;;;;;4933514;29;20059;-59
2023/04/12 07:42:18;;;;;;;0.75;0.50;;;;;;;;;;4932614;29;20433;-59
2023/04/12 07:44:46;;;;;;;0.70;0.70;;;;;;;;;;4933272;29;20525;-60
2023/04/12 07:47:14;;;;;;;1.85;1.48;;;;;;;;;;4932675;29;20762;-60
2023/04/12 07:49:43;;;;;;;0.22;0.22;;;;;;;;;;4933248;29;20580;-60
2023/04/12 07:52:11;;;;;;;0.55;0.40;;;;;;;;;;4933417;29;20047;-60
2023/04/12 07:54:41;;;;;;;0.55;0.45;;;;;;;;;;4932341;29;20048;-60
2023/04/12 07:57:10;;;;;;;0.45;0.40;;;;;;;;;;4932552;29;20075;-60
2023/04/12 07:59:39;;;;;;;0.98;0.57;;;;;;;;;;4932681;29;20058;-60
2023/04/12 08:02:08;;;;;;;0.88;0.55;;;;;;;;;;4933148;29;20453;-60
2023/04/12 08:04:37;;;;;;;0.85;0.40;;;;;;;;;;4933642;29;20051;-60
2023/04/12 08:07:05;;;;;;;0.55;0.38;;;;;;;;;;4921798;29;20059;-60
2023/04/12 08:09:33;;;;;;;0.65;0.57;;;;;;;;;;4932620;29;20095;-60
2023/04/12 08:12:02;;;;;;;0.75;0.47;;;;;;;;;;4932705;29;20043;-60
2023/04/12 08:14:30;;;;;;;1.67;0.47;;;;;;;;;;4932710;29;20497;-60
2023/04/12 08:17:00;;;;;;;0.85;0.40;;;;;;;;;;4932180;29;20078;-61
2023/04/12 08:19:28;;;;;;;0.22;0.22;;;;;;;;;;4920029;29;20052;-60
2023/04/12 08:21:57;;;;;;;7.32;0.47;;;;;;;;;;4932688;29;20516;-61
2023/04/12 08:24:25;;;;;;;1.42;0.70;;;;;;;;;;4932448;29;20513;-60
2023/04/12 08:26:54;;;;;;;0.95;0.70;;;;;;;;;;4931919;29;20577;-60
2023/04/12 08:29:23;;;;;;;2.78;0.35;;;;;;;;;;4932487;29;20052;-61
2023/04/12 08:31:51;;;;;;;1.23;1.13;;;;;;;;;;4932146;29;20047;-61
2023/04/12 08:34:23;;;;;;;1.15;0.68;;;;;;;;;;4932374;29;20048;-61
2023/04/12 08:36:51;;;;;;;5.25;0.60;;;;;;;;;;4931872;29;20079;-61
2023/04/12 08:39:20;;;;;;;0.52;0.50;;;;;;;;;;4931918;29;20043;-61
2023/04/12 08:41:49;;;;;;;0.40;0.28;;;;;;;;;;4930972;29;20047;-60
2023/04/12 08:44:18;;;;;;;0.70;0.60;;;;;;;;;;4932310;29;20135;-60
2023/04/12 08:46:47;;;;;;;1.80;0.43;;;;;;;;;;4931253;28;20700;-60
2023/04/12 08:49:17;;;;;;;0.63;0.50;;;;;;;;;;4932568;29;20097;-60
2023/04/12 08:51:47;;;;;;;0.80;0.60;;;;;;;;;;4932325;29;20051;-60
2023/04/12 08:54:15;;;;;;;0.65;0.40;;;;;;;;;;4932037;29;20078;-61
2023/04/12 08:56:44;;;;;;;0.30;0.30;;;;;;;;;;4931015;28;20063;-60
2023/04/12 08:59:13;;;;;;;0.50;0.50;;;;;;;;;;4932061;29;20059;-61
2023/04/12 09:01:42;;;;;;;1.63;0.57;;;;;;;;;;4931740;29;20044;-60
2023/04/12 09:04:10;;;;;;;1.15;0.40;;;;;;;;;;4931724;29;20253;-60
2023/04/12 09:06:40;;;;;;;1.70;0.32;;;;;;;;;;4931037;29;20469;-60
2023/04/12 09:09:10;;;;;;;1.15;0.70;;;;;;;;;;4931968;29;20146;-60
2023/04/12 09:11:38;;;;;;;3.70;0.68;;;;;;;;;;4931547;29;20154;-60
2023/04/12 09:14:20;;;;;;;1.92;0.60;;;;;;;;;;4932008;29;20047;-60
2023/04/12 09:16:49;;;;;;;0.43;0.32;;;;;;;;;;4931437;29;20055;-60
2023/04/12 09:19:31;;;;;;;0.98;0.40;;;;;;;;;;4922388;29;20488;-60
2023/04/12 09:21:59;;;;;;;1.38;0.50;;;;;;;;;;4931918;29;20051;-60
2023/04/12 09:24:29;;;;;;;1.10;0.47;;;;;;;;;;4931034;29;20047;-60
2023/04/12 09:27:04;;;;;;;1.80;0.77;;;;;;;;;;4931233;29;20063;-60
2023/04/12 09:29:32;;;;;;;;;;;;;;;;;;4932068;29;20470;-60
2023/04/12 09:32:02;;;;;;;0.17;0.17;;;;;;;;;;4931612;29;19994;-60
2023/04/12 09:34:30;;;;;;;0.20;0.20;;;;;;;;;;4920125;29;20061;-61
2023/04/12 09:36:59;;;;;;;0.15;0.15;;;;;;;;;;4930675;28;20084;-62
2023/04/12 09:39:35;;;;;;;0.30;0.30;;;;;;;;;;4932074;29;20063;-62
2023/04/12 09:42:06;;;;;;;1.05;0.43;;;;;;;;;;4930116;29;20063;-62
2023/04/12 09:44:45;;;;;;;1.00;0.30;;;;;;;;;;4931731;29;20054;-62
2023/04/12 09:47:14;;;;;;;4.88;0.40;;;;;;;;;;4930650;29;20719;-62
2023/04/12 09:49:43;;;;;;;0.50;0.38;;;;;;;;;;4931851;29;20083;-61
2023/04/12 09:52:12;;;;;;;0.28;0.25;;;;;;;;;;4931474;29;20059;-61
2023/04/12 09:54:43;;;;;;;0.80;0.50;;;;;;;;;;4931497;29;20082;-62
2023/04/12 09:57:12;;;;;;;0.52;0.38;;;;;;;;;;4930891;29;20111;-61
2023/04/12 09:59:41;;;;;;;0.70;0.55;;;;;;;;;;4931165;29;20565;-61
2023/04/12 10:02:14;;;;;;;0.93;0.63;;;;;;;;;;4931164;29;20051;-61
2023/04/12 10:04:43;;;;;;;0.43;0.43;;;;;;;;;;4931641;29;20051;-60
2023/04/12 10:07:12;;;;;;;1.42;0.55;;;;;;;;;;4929381;28;20043;-61
2023/04/12 10:09:43;;;;;;;0.63;0.40;;;;;;;;;;4931203;29;20099;-61
2023/04/12 10:12:12;;;;;;;0.47;0.47;;;;;;;;;;4931586;29;20047;-61
2023/04/12 10:14:40;;;;;;;0.60;0.60;;;;;;;;;;4931302;29;20135;-61
2023/04/12 10:17:09;;;;;;;1.42;0.60;;;;;;;;;;4930927;28;20348;-61
2023/04/12 10:19:38;;;;;;;0.45;0.45;;;;;;;;;;4929062;29;20098;-61
2023/04/12 10:22:07;;;;;;;0.40;0.40;;;;;;;;;;4934664;29;20048;-61
2023/04/12 10:24:36;;;;;;;1.50;0.85;;;;;;;;;;4934676;29;20154;-61
2023/04/12 10:27:06;;;;;;;0.40;0.40;;;;;;;;;;4933827;28;20147;-61
2023/04/12 10:29:36;;;;;;;0.13;0.13;;;;;;;;;;4928919;29;20056;-61
2023/04/12 10:32:19;;;;;;;0.47;0.40;;;;;;;;;;4934548;29;20592;-62
2023/04/12 10:34:51;;;;;;;0.20;0.20;;;;;;;;;;4934527;29;20139;-62
2023/04/12 10:37:19;;;;;;;0.28;0.25;;;;;;;;;;4933681;29;20063;-62
2023/04/12 10:39:53;;;;;;;1.27;0.40;;;;;;;;;;4934203;29;20044;-61
2023/04/12 10:42:23;;;;;;;0.28;0.17;;;;;;;;;;4933477;29;20048;-63
2023/04/12 10:44:53;;;;;;;2.30;0.40;;;;;;;;;;4934600;29;20060;-62
2023/04/12 10:47:40;;;;;;;0.63;0.50;;;;;;;;;;4932941;29;20576;-62
2023/04/12 10:50:23;;;;;;;0.57;0.43;;;;;;;;;;4934202;29;20144;-62
2023/04/12 10:53:11;;;;;;;0.15;0.15;;;;;;;;;;4933998;29;20150;-61
2023/04/12 10:55:40;;;;;;;0.20;0.20;;;;;;;;;;4928804;29;20047;-62
2023/04/12 10:58:09;;;;;;;0.20;0.20;;;;;;;;;;4933975;29;20528;-61
2023/04/12 11:01:03;;;;;;;0.20;0.10;;;;;;;;;;4933865;29;20114;-61
2023/04/12 11:03:31;;;;;;;1.00;0.20;;;;;;;;;;4911210;29;20089;-63
2023/04/12 11:06:01;;;;;;;0.20;0.20;;;;;;;;;;4919785;29;20075;-61
2023/04/12 11:08:49;;;;;;;0.10;0.10;;;;;;;;;;4930875;29;20060;-61
2023/04/12 11:11:21;;;;;;;2.65;0.40;;;;;;;;;;4933949;29;20043;-61
2023/04/12 11:13:54;;;;;;;0.10;0.10;;;;;;;;;;4933473;29;20059;-61
2023/04/12 11:16:23;;;;;;;0.10;0.10;;;;;;;;;;4933414;29;20052;-61
2023/04/12 11:18:52;;;;;;;0.17;0.13;;;;;;;;;;4933150;29;20044;-60
2023/04/12 11:21:21;;;;;;;0.20;0.17;;;;;;;;;;4933540;29;20058;-61
2023/04/12 11:23:51;;;;;;;0.20;0.20;;;;;;;;;;4933507;29;20056;-61
2023/04/12 11:26:21;;;;;;;0.65;0.20;;;;;;;;;;4932336;29;20106;-60
2023/04/12 11:28:52;;;;;;;0.90;0.30;;;;;;;;;;4933553;29;20043;-61
2023/04/12 11:31:22;;;;;;;1.17;0.40;;;;;;;;;;4933436;29;20052;-61
2023/04/12 11:33:50;;;;;;;1.45;0.30;;;;;;;;;;4932685;29;20047;-61
2023/04/12 11:36:19;;;;;;;0.55;0.43;;;;;;;;;;4932177;29;20075;-61
2023/04/12 11:38:49;;;;;;;0.30;0.30;;;;;;;;;;4933277;29;20052;-60
2023/04/12 11:41:18;;;;;;;0.73;0.28;;;;;;;;;;4926559;29;20529;-62
2023/04/12 11:43:47;;;;;;;0.20;0.20;;;;;;;;;;4933230;29;20048;-61
2023/04/12 11:46:17;;;;;;;0.63;0.40;;;;;;;;;;4931907;29;20040;-61
2023/04/12 11:48:47;;;;;;;0.70;0.30;;;;;;;;;;4933585;29;20048;-61
2023/04/12 11:51:23;;;;;;;0.60;0.38;;;;;;;;;;4932668;29;20059;-60
2023/04/12 11:53:55;;;;;;;3.58;0.40;;;;;;;;;;4932970;29;20047;-61
2023/04/12 11:56:24;;;;;;;0.13;0.13;;;;;;;;;;4932147;29;20060;-61
2023/04/12 11:58:52;;;;;;;1.60;0.30;;;;;;;;;;4932982;29;20130;-60
2023/04/12 12:01:21;;;;;;;0.30;0.20;;;;;;;;;;4933031;29;20098;-60
2023/04/12 12:03:51;;;;;;;0.57;0.30;;;;;;;;;;4932504;29;20711;-61
2023/04/12 12:06:20;;;;;;;3.20;0.52;;;;;;;;;;4932131;28;20051;-60
2023/04/12 12:08:50;;;;;;;0.20;0.20;;;;;;;;;;4932459;29;20527;-61
2023/04/12 12:11:19;;;;;;;1.00;0.30;;;;;;;;;;4932705;29;20110;-60
2023/04/12 12:13:48;;;;;;;3.03;0.25;;;;;;;;;;4932445;29;20069;-61
2023/04/12 12:16:17;;;;;;;0.47;0.30;;;;;;;;;;4931836;29;20130;-60
2023/04/12 12:18:49;;;;;;;0.70;0.30;;;;;;;;;;4932373;29;20056;-61
2023/04/12 12:21:21;;;;;;;0.35;0.35;;;;;;;;;;4932353;29;20074;-61
2023/04/12 12:23:50;;;;;;;0.35;0.25;;;;;;;;;;4932329;29;20055;-60
2023/04/12 12:26:22;;;;;;;0.68;0.32;;;;;;;;;;4931565;29;20051;-60
2023/04/12 12:28:51;;;;;;;0.35;0.20;;;;;;;;;;4932305;29;20062;-60
2023/04/12 12:31:20;;;;;;;0.20;0.20;;;;;;;;;;4932324;29;20067;-60
2023/04/12 12:33:51;;;;;;;3.63;0.50;;;;;;;;;;4932551;29;20055;-60
2023/04/12 12:36:20;;;;;;;1.25;0.50;;;;;;;;;;4931351;29;20054;-60
2023/04/12 12:38:53;;;;;;;1.10;0.38;;;;;;;;;;4932184;29;20048;-60
2023/04/12 12:41:23;;;;;;;0.32;0.30;;;;;;;;;;4924471;29;20086;-61
2023/04/12 12:43:52;;;;;;;0.38;0.20;;;;;;;;;;4932359;29;20052;-61
2023/04/12 12:46:21;;;;;;;0.73;0.32;;;;;;;;;;4931495;29;20530;-61
2023/04/12 12:48:50;;;;;;;0.20;0.20;;;;;;;;;;4932220;29;20059;-61
2023/04/12 12:51:19;;;;;;;0.93;0.77;;;;;;;;;;4931601;29;20504;-60
2023/04/12 12:53:47;;;;;;;0.13;0.13;;;;;;;;;;4932108;29;20054;-61
2023/04/12 12:56:17;;;;;;;2.63;0.40;;;;;;;;;;4931209;28;20048;-61
2023/04/12 12:58:45;;;;;;;3.47;0.50;;;;;;;;;;4931919;29;20138;-61
2023/04/12 13:01:14;;;;;;;0.75;0.43;;;;;;;;;;4931749;29;20047;-61
2023/04/12 13:03:43;;;;;;;0.45;0.15;;;;;;;;;;4931417;29;20134;-61
2023/04/12 13:06:11;;;;;;;0.10;0.10;;;;;;;;;;4930795;28;20138;-61
2023/04/12 13:08:40;;;;;;;0.63;0.63;;;;;;;;;;4931814;29;20126;-61
2023/04/12 13:11:08;;;;;;;2.53;0.30;;;;;;;;;;4931680;29;20146;-61
2023/04/12 13:13:38;;;;;;;0.20;0.20;;;;;;;;;;4931623;29;20047;-61
2023/04/12 13:16:06;;;;;;;0.63;0.30;;;;;;;;;;4931240;29;20058;-61
2023/04/12 13:18:35;;;;;;;1.20;0.30;;;;;;;;;;4931420;29;20055;-61
2023/04/12 13:21:03;;;;;;;0.30;0.30;;;;;;;;;;4931429;29;20586;-61
2023/04/12 13:23:32;;;;;;;1.40;0.50;;;;;;;;;;4931649;29;20109;-61
2023/04/12 13:26:00;;;;;;;0.28;0.28;;;;;;;;;;4930718;29;20131;-61
2023/04/12 13:28:28;;;;;;;0.20;0.20;;;;;;;;;;4931419;29;20052;-61
2023/04/12 13:30:58;;;;;;;2.17;0.30;;;;;;;;;;4931565;29;20134;-61
2023/04/12 13:33:26;;;;;;;0.98;0.50;;;;;;;;;;4930864;29;20404;-61
2023/04/12 13:35:55;;;;;;;0.75;0.40;;;;;;;;;;4931244;29;20075;-61
2023/04/12 13:38:23;;;;;;;1.70;1.15;;;;;;;;;;4919132;29;20347;-61
2023/04/12 13:40:51;;;;;;;0.45;0.32;;;;;;;;;;4924626;29;20080;-60
2023/04/12 13:43:20;;;;;;;0.93;0.30;;;;;;;;;;4931579;29;20418;-60
2023/04/12 13:45:49;;;;;;;0.45;0.20;;;;;;;;;;4930747;29;20048;-61
2023/04/12 13:48:19;;;;;;;0.15;0.10;;;;;;;;;;4931976;29;20082;-60
2023/04/12 13:50:48;;;;;;;0.82;0.43;;;;;;;;;;4930939;29;20074;-61
2023/04/12 13:53:18;;;;;;;0.20;0.20;;;;;;;;;;4933600;29;20048;-61
2023/04/12 13:55:48;;;;;;;0.52;0.28;;;;;;;;;;4934153;29;20078;-61
2023/04/12 13:58:18;;;;;;;1.45;0.22;;;;;;;;;;4935321;29;20134;-61
2023/04/12 14:00:46;;;;;;;0.60;0.30;;;;;;;;;;4934567;29;20133;-61
2023/04/12 14:03:15;;;;;;;0.30;0.30;;;;;;;;;;4934725;29;20063;-61
2023/04/12 14:05:44;;;;;;;3.78;0.52;;;;;;;;;;4932131;29;20060;-62
2023/04/12 14:08:13;;;;;;;0.38;0.30;;;;;;;;;;4935081;29;20048;-62
2023/04/12 14:10:41;;;;;;;3.10;0.17;;;;;;;;;;4934541;29;20486;-61
2023/04/12 14:13:09;;;;;;;1.70;0.40;;;;;;;;;;4934547;29;20472;-61
2023/04/12 14:15:38;;;;;;;0.30;0.30;;;;;;;;;;4933988;29;20384;-61
2023/04/12 14:18:06;;;;;;;2.55;0.20;;;;;;;;;;4934998;29;20043;-61
2023/04/12 14:20:34;;;;;;;0.28;0.28;;;;;;;;;;4934436;29;20572;-61
2023/04/12 14:23:04;;;;;;;0.28;0.20;;;;;;;;;;4933940;29;20043;-61
2023/04/12 14:25:35;;;;;;;0.25;0.25;;;;;;;;;;4933881;29;20055;-61
2023/04/12 14:28:04;;;;;;;0.95;0.90;;;;;;;;;;4934491;29;20048;-61
2023/04/12 14:30:32;;;;;;;0.17;0.17;;;;;;;;;;4934429;29;20160;-61
2023/04/12 14:33:00;;;;;;;0.43;0.43;;;;;;;;;;4934355;29;20930;-61
2023/04/12 14:35:29;;;;;;;0.75;0.22;;;;;;;;;;4933732;29;20054;-62
2023/04/12 14:37:57;;;;;;;0.32;0.20;;;;;;;;;;4934027;29;20126;-61
2023/04/12 14:40:27;;;;;;;1.13;0.40;;;;;;;;;;4930679;29;20046;-61
2023/04/12 14:42:55;;;;;;;2.47;0.35;;;;;;;;;;4931987;29;20823;-61
2023/04/12 14:45:24;;;;;;;0.63;0.20;;;;;;;;;;4934148;29;20048;-61
2023/04/12 14:47:52;;;;;;;0.38;0.20;;;;;;;;;;4932101;29;20058;-61
2023/04/12 14:50:21;;;;;;;0.10;0.10;;;;;;;;;;4934172;29;20131;-61
2023/04/12 14:52:49;;;;;;;0.40;0.30;;;;;;;;;;4933876;29;20485;-61
2023/04/12 14:55:18;;;;;;;0.28;0.28;;;;;;;;;;4933573;29;20135;-61
2023/04/12 14:57:47;;;;;;;0.65;0.30;;;;;;;;;;4933328;29;20047;-61